Terminal Aerodrome Forecast
Issued by NWS

Current Version | Previous Version | Graphics & Text | Print | Product List | Glossary On
Versions: 1 2 3 4 5 6 7 8 9 10 11 12 13 14 15 16 17 18 19 20 21 22 23 24 25 26 27 28 29 30
583
FTUS41 KRLX 162334
TAFCKB
TAF
KCKB 162334Z 1700/1724 26010G19KT 4SM -SN OVC035
      TEMPO 1700/1702 2SM -SN OVC015
     FM170200 27012G18KT 4SM -SN OVC025
     FM171000 27012G18KT 6SM -SN OVC020
     FM171300 26013G19KT P6SM OVC020
     FM172300 27009KT P6SM BKN045=

USA.gov is the U.S. government's official web portal to all federal, state and local government web resources and services.